Time;durP1;ratioP1;P1;durP2;ratioP2;P2;SDS_P1;SDS_P2;PMS_P1;PMS_P2;Temp;Humidity;BMP_temperature;BMP_pressure;BME280_temperature;BME280_humidity;BME280_pressure;Samples;Min_cycle;Max_cycle;Signal;HPM_P1;HPM_P2
2022/08/31 00:04:01;;;;;;;2.95;2.08;;;21.50;63.80;;;;;;5016251;28;20398;-70
2022/08/31 00:06:29;;;;;;;3.20;1.73;;;21.50;63.50;;;;;;5015809;28;20092;-70
2022/08/31 00:08:55;;;;;;;3.25;1.75;;;21.50;63.40;;;;;;5016146;28;20033;-69
2022/08/31 00:11:27;;;;;;;2.17;1.70;;;21.50;63.40;;;;;;5015702;28;20030;-70
2022/08/31 00:13:58;;;;;;;4.88;2.55;;;21.50;63.70;;;;;;5016078;28;20034;-68
2022/08/31 00:16:25;;;;;;;4.40;2.30;;;21.50;63.40;;;;;;5015730;28;20098;-71
2022/08/31 00:18:51;;;;;;;3.47;2.15;;;21.50;63.80;;;;;;5015958;28;20034;-70
2022/08/31 00:21:19;;;;;;;5.43;1.83;;;21.40;64.00;;;;;;5015882;28;20050;-73
2022/08/31 00:23:45;;;;;;;4.57;1.77;;;21.40;64.30;;;;;;5015749;28;20033;-69
2022/08/31 00:26:11;;;;;;;4.55;1.75;;;21.40;64.30;;;;;;5015778;28;20033;-69
2022/08/31 00:28:36;;;;;;;5.35;2.00;;;21.40;64.40;;;;;;5015789;28;20525;-69
2022/08/31 00:31:02;;;;;;;2.17;1.80;;;21.40;64.60;;;;;;5015531;28;20054;-69
2022/08/31 00:33:28;;;;;;;2.65;1.80;;;21.40;65.00;;;;;;5015614;28;20117;-69
2022/08/31 00:35:53;;;;;;;4.20;1.75;;;21.30;65.60;;;;;;5015708;28;20029;-69
2022/08/31 00:38:19;;;;;;;3.85;2.03;;;21.30;66.10;;;;;;5015273;28;20464;-71
2022/08/31 00:40:46;;;;;;;2.63;2.13;;;21.20;66.20;;;;;;5015850;28;20030;-69
2022/08/31 00:43:32;;;;;;;2.90;1.80;;;21.10;66.90;;;;;;5015431;28;20041;-69
2022/08/31 00:45:58;;;;;;;3.88;2.13;;;21.10;66.80;;;;;;5015438;28;20061;-69
2022/08/31 00:48:23;;;;;;;3.63;2.10;;;21.10;67.00;;;;;;5015090;28;20026;-69
2022/08/31 00:50:49;;;;;;;4.65;2.15;;;21.10;67.10;;;;;;5015416;28;20080;-69
2022/08/31 00:53:15;;;;;;;3.20;2.10;;;21.10;67.30;;;;;;5006095;28;20027;-69
2022/08/31 00:55:40;;;;;;;2.28;1.42;;;21.10;67.60;;;;;;4995395;28;20109;-71
2022/08/31 00:58:09;;;;;;;2.67;1.63;;;21.10;67.90;;;;;;4995659;28;20053;-69
2022/08/31 01:00:35;;;;;;;2.55;2.05;;;21.10;67.70;;;;;;4977921;28;20077;-70
2022/08/31 01:03:05;;;;;;;4.07;2.15;;;21.10;67.80;;;;;;4995495;28;20031;-70
2022/08/31 01:05:32;;;;;;;3.73;2.00;;;21.10;68.20;;;;;;4995264;28;20034;-70
2022/08/31 01:07:59;;;;;;;2.58;1.85;;;21.00;68.90;;;;;;4995513;28;20032;-70
2022/08/31 01:10:33;;;;;;;2.75;1.85;;;20.90;69.70;;;;;;4994269;28;20033;-70
2022/08/31 01:12:59;;;;;;;4.15;2.20;;;20.90;69.40;;;;;;4994944;28;20101;-70
2022/08/31 01:15:27;;;;;;;2.65;1.90;;;20.80;70.30;;;;;;4995056;28;20037;-70
2022/08/31 01:17:54;;;;;;;4.28;2.03;;;20.80;70.10;;;;;;5014325;28;20104;-69
2022/08/31 01:20:45;;;;;;;6.88;2.28;;;20.80;70.50;;;;;;5014354;28;20399;-68
2022/08/31 01:23:27;;;;;;;2.92;2.03;;;20.80;70.90;;;;;;5014769;28;20033;-70
2022/08/31 01:25:56;;;;;;;2.95;1.95;;;20.80;70.80;;;;;;5014919;28;20037;-69
2022/08/31 01:28:21;;;;;;;2.75;2.08;;;20.70;71.10;;;;;;5014624;28;20049;-70
2022/08/31 01:31:22;;;;;;;3.40;2.00;;;20.70;71.30;;;;;;5014615;28;20525;-70
2022/08/31 01:33:48;;;;;;;2.38;2.08;;;20.70;71.40;;;;;;4997159;28;20645;-70
2022/08/31 01:36:15;;;;;;;2.50;2.13;;;20.70;71.60;;;;;;5014312;28;20022;-70
2022/08/31 01:38:41;;;;;;;4.68;2.25;;;20.70;72.00;;;;;;5013868;28;20483;-69
2022/08/31 01:41:07;;;;;;;3.10;2.15;;;20.60;72.30;;;;;;5014208;28;20109;-70
2022/08/31 01:43:33;;;;;;;4.47;2.13;;;20.70;72.20;;;;;;4996521;28;20117;-70
2022/08/31 01:46:04;;;;;;;2.95;2.50;;;20.70;72.10;;;;;;5014450;28;20481;-70
2022/08/31 01:48:31;;;;;;;;;;;20.70;71.90;;;;;;5014439;28;20141;-70
2022/08/31 01:50:56;;;;;;;3.53;2.15;;;20.70;72.50;;;;;;5014031;28;19906;-70
2022/08/31 01:53:22;;;;;;;2.63;2.10;;;20.60;72.60;;;;;;5014317;28;20439;-71
2022/08/31 01:55:47;;;;;;;4.35;2.80;;;20.50;74.00;;;;;;5013834;28;20478;-70
2022/08/31 01:58:13;;;;;;;4.30;2.45;;;20.50;73.90;;;;;;5014169;28;20053;-70
2022/08/31 02:00:40;;;;;;;2.72;2.22;;;20.60;73.80;;;;;;5013665;28;20114;-70
2022/08/31 02:03:06;;;;;;;2.53;2.05;;;20.60;73.70;;;;;;5013894;28;20396;-70
2022/08/31 02:05:34;;;;;;;3.55;2.50;;;20.60;73.80;;;;;;5013706;28;20105;-70
2022/08/31 02:08:00;;;;;;;3.05;2.13;;;20.50;74.50;;;;;;5014216;28;20441;-70
2022/08/31 02:10:26;;;;;;;2.95;2.17;;;20.50;74.60;;;;;;5013678;28;20471;-69
2022/08/31 02:12:52;;;;;;;3.97;2.55;;;20.50;74.60;;;;;;5013629;28;20030;-70
2022/08/31 02:15:18;;;;;;;2.70;2.28;;;20.50;74.40;;;;;;5013669;28;20029;-69
2022/08/31 02:17:44;;;;;;;4.43;2.50;;;20.50;74.40;;;;;;5013493;28;20022;-70
2022/08/31 02:20:11;;;;;;;7.30;2.22;;;20.40;75.20;;;;;;5013524;28;20478;-70
2022/08/31 02:22:36;;;;;;;6.85;2.70;;;20.40;75.00;;;;;;5013044;28;20030;-70
2022/08/31 02:25:04;;;;;;;3.80;2.25;;;20.50;74.80;;;;;;5013616;28;20029;-69
2022/08/31 02:27:30;;;;;;;5.47;2.58;;;20.40;75.70;;;;;;5013274;28;20168;-70
2022/08/31 02:29:55;;;;;;;3.95;2.42;;;20.40;75.30;;;;;;5013651;28;20112;-69
2022/08/31 02:32:22;;;;;;;3.95;2.80;;;20.40;76.10;;;;;;5013644;28;20033;-69
2022/08/31 02:34:48;;;;;;;3.38;2.17;;;20.30;76.30;;;;;;5012784;28;20398;-69
2022/08/31 02:37:14;;;;;;;3.10;2.40;;;20.30;76.50;;;;;;5013731;28;20036;-69
2022/08/31 02:39:40;;;;;;;3.92;2.53;;;20.30;77.50;;;;;;5012862;28;20033;-69
2022/08/31 02:42:06;;;;;;;3.28;2.28;;;20.30;76.80;;;;;;5013196;28;20030;-69
2022/08/31 02:44:32;;;;;;;8.88;2.80;;;20.30;76.70;;;;;;5011972;28;20029;-69
2022/08/31 02:46:57;;;;;;;4.22;2.63;;;20.40;76.70;;;;;;5010714;28;20033;-69
2022/08/31 02:49:23;;;;;;;6.93;2.40;;;20.30;77.30;;;;;;5013147;28;20030;-69
2022/08/31 02:51:49;;;;;;;4.30;2.90;;;20.30;77.20;;;;;;5012669;28;20026;-69
2022/08/31 02:54:14;;;;;;;3.00;2.22;;;20.30;77.90;;;;;;5013366;28;20105;-69
2022/08/31 02:56:40;;;;;;;3.53;2.47;;;20.20;77.70;;;;;;5012840;28;20076;-69
2022/08/31 02:59:07;;;;;;;2.58;2.35;;;20.20;78.20;;;;;;5013178;28;20041;-69
2022/08/31 03:01:34;;;;;;;4.00;2.60;;;20.10;78.80;;;;;;5012780;28;20492;-69
2022/08/31 03:04:00;;;;;;;3.03;2.60;;;20.10;79.10;;;;;;5012973;28;20030;-69
2022/08/31 03:06:25;;;;;;;3.90;2.65;;;20.10;79.40;;;;;;5013049;28;20076;-69
2022/08/31 03:08:51;;;;;;;3.38;2.17;;;20.10;79.00;;;;;;5012575;28;20037;-69
2022/08/31 03:11:17;;;;;;;5.63;2.53;;;20.10;79.00;;;;;;5009648;28;20109;-70
2022/08/31 03:13:43;;;;;;;4.85;3.00;;;20.10;80.00;;;;;;5012362;28;20540;-69
2022/08/31 03:16:12;;;;;;;3.28;2.50;;;20.10;79.60;;;;;;5012989;28;20034;-69
2022/08/31 03:18:37;;;;;;;4.40;2.72;;;20.10;79.90;;;;;;5012685;28;20030;-69
2022/08/31 03:21:03;;;;;;;3.28;2.40;;;20.10;79.70;;;;;;4994956;28;20050;-69
2022/08/31 03:23:29;;;;;;;5.25;2.63;;;20.00;79.80;;;;;;5012748;28;20080;-69
2022/08/31 03:25:55;;;;;;;2.67;2.30;;;20.00;79.80;;;;;;5012545;28;20042;-69
2022/08/31 03:28:20;;;;;;;3.53;2.45;;;20.00;79.90;;;;;;5012606;28;20104;-69
2022/08/31 03:30:46;;;;;;;2.53;2.00;;;20.00;80.30;;;;;;5012510;28;20026;-69
2022/08/31 03:33:12;;;;;;;3.45;2.17;;;20.00;80.30;;;;;;5012679;28;20080;-69
2022/08/31 03:35:43;;;;;;;4.50;2.53;;;20.00;79.90;;;;;;5015038;28;20080;-69
2022/08/31 03:38:11;;;;;;;6.55;2.85;;;20.00;80.40;;;;;;4999214;28;20026;-69
2022/08/31 03:40:38;;;;;;;3.65;2.55;;;20.00;80.50;;;;;;5016384;28;20061;-69
2022/08/31 03:43:03;;;;;;;3.22;2.72;;;20.10;80.50;;;;;;5013517;28;20189;-69
2022/08/31 03:45:30;;;;;;;3.85;2.28;;;20.10;80.60;;;;;;5005199;28;20125;-69
2022/08/31 03:47:58;;;;;;;3.47;2.28;;;20.00;80.70;;;;;;4989043;28;20026;-68
2022/08/31 03:50:24;;;;;;;4.28;2.90;;;20.10;80.70;;;;;;5006797;28;20037;-69
2022/08/31 03:52:53;;;;;;;3.20;2.33;;;20.00;80.50;;;;;;5004471;28;20026;-71
2022/08/31 03:55:19;;;;;;;3.78;2.50;;;20.00;81.20;;;;;;5006453;28;20018;-70
2022/08/31 03:57:44;;;;;;;5.32;3.30;;;20.10;80.80;;;;;;5006647;28;20450;-70
2022/08/31 04:00:10;;;;;;;4.32;2.67;;;20.00;81.10;;;;;;5006839;28;20117;-70
2022/08/31 04:02:38;;;;;;;2.92;2.35;;;20.00;81.90;;;;;;5005467;28;20097;-70
2022/08/31 04:05:05;;;;;;;4.50;2.40;;;20.00;81.80;;;;;;5005470;28;20105;-69
2022/08/31 04:07:31;;;;;;;5.35;3.13;;;20.00;82.20;;;;;;5006930;28;20033;-69
2022/08/31 04:09:57;;;;;;;4.18;3.03;;;19.90;81.70;;;;;;5010434;28;20038;-69
2022/08/31 04:12:22;;;;;;;6.10;3.33;;;19.90;82.30;;;;;;5015677;28;20026;-69
2022/08/31 04:14:48;;;;;;;4.63;3.20;;;19.90;82.10;;;;;;5013015;28;20081;-70
2022/08/31 04:17:14;;;;;;;3.40;2.55;;;19.90;82.80;;;;;;5015649;28;20014;-69
2022/08/31 04:19:40;;;;;;;5.05;3.55;;;19.80;82.80;;;;;;5015407;28;20114;-70
2022/08/31 04:22:07;;;;;;;4.03;2.90;;;19.80;83.00;;;;;;5015771;28;20029;-71
2022/08/31 04:24:32;;;;;;;3.38;2.80;;;19.80;83.70;;;;;;5015639;28;20034;-70
2022/08/31 04:26:58;;;;;;;3.97;2.75;;;19.70;84.00;;;;;;5015457;28;20662;-70
2022/08/31 04:29:24;;;;;;;5.10;2.92;;;19.70;84.60;;;;;;5015478;28;20026;-70
2022/08/31 04:31:49;;;;;;;3.78;2.72;;;19.70;85.20;;;;;;5015246;28;20037;-70
2022/08/31 04:34:15;;;;;;;5.22;3.10;;;19.70;84.40;;;;;;5015652;28;20033;-70
2022/08/31 04:36:44;;;;;;;4.90;2.50;;;19.70;84.90;;;;;;5015092;28;20022;-70
2022/08/31 04:39:10;;;;;;;4.35;2.60;;;19.60;85.20;;;;;;5015479;28;20093;-70
2022/08/31 04:41:38;;;;;;;3.83;2.72;;;19.60;86.00;;;;;;5015368;28;20037;-70
2022/08/31 04:44:04;;;;;;;4.40;2.85;;;19.60;85.60;;;;;;5015409;28;20025;-71
2022/08/31 04:46:35;;;;;;;4.40;2.90;;;19.70;85.70;;;;;;5012195;28;20030;-70
2022/08/31 04:49:01;;;;;;;2.80;2.47;;;19.70;85.70;;;;;;4995330;28;20034;-70
2022/08/31 04:51:35;;;;;;;3.78;2.88;;;19.70;86.20;;;;;;4995934;28;20034;-70
2022/08/31 04:54:05;;;;;;;3.75;2.67;;;19.80;85.70;;;;;;4995307;28;20034;-70
2022/08/31 04:56:32;;;;;;;3.78;2.67;;;19.80;86.10;;;;;;4995295;28;20092;-70
2022/08/31 04:59:01;;;;;;;5.57;2.90;;;19.80;85.90;;;;;;4994853;28;20066;-70
2022/08/31 05:01:34;;;;;;;3.85;2.70;;;19.80;85.50;;;;;;4995838;28;20026;-70
2022/08/31 05:03:59;;;;;;;5.45;3.08;;;19.90;85.50;;;;;;4995155;28;20096;-70
2022/08/31 05:06:29;;;;;;;3.30;2.78;;;20.00;84.70;;;;;;4995441;28;20026;-69
2022/08/31 05:08:58;;;;;;;3.60;2.78;;;20.10;83.90;;;;;;4997348;28;20037;-69
2022/08/31 05:11:25;;;;;;;5.68;3.20;;;20.20;83.50;;;;;;4995398;28;20076;-69
2022/08/31 05:13:52;;;;;;;7.15;2.80;;;20.30;83.40;;;;;;4994871;28;20034;-70
2022/08/31 05:16:19;;;;;;;8.38;3.40;;;20.30;82.90;;;;;;4995227;28;20081;-70
2022/08/31 05:18:46;;;;;;;3.65;2.90;;;20.40;83.00;;;;;;4994781;28;20034;-70
2022/08/31 05:21:14;;;;;;;5.13;3.05;;;20.40;82.80;;;;;;4995242;28;20058;-71
2022/08/31 05:23:39;;;;;;;8.07;3.20;;;20.50;82.60;;;;;;4994960;28;20060;-69
2022/08/31 05:26:06;;;;;;;4.97;3.00;;;20.50;82.20;;;;;;4994772;28;20089;-69
2022/08/31 05:28:33;;;;;;;8.20;3.42;;;20.60;82.80;;;;;;4994964;28;20041;-69
2022/08/31 05:30:59;;;;;;;3.70;2.75;;;20.60;82.60;;;;;;4994308;28;20026;-66
2022/08/31 05:33:26;;;;;;;3.63;3.17;;;20.70;81.80;;;;;;4994507;28;20081;-69
2022/08/31 05:35:52;;;;;;;5.75;2.90;;;20.80;81.70;;;;;;4994374;28;20030;-69
2022/08/31 05:38:17;;;;;;;3.90;2.50;;;20.90;81.10;;;;;;4994812;28;20026;-69
2022/08/31 05:40:51;;;;;;;4.20;2.55;;;21.00;81.50;;;;;;4994330;28;20026;-72
2022/08/31 05:43:16;;;;;;;3.53;2.58;;;21.10;80.30;;;;;;4994786;28;20117;-70
2022/08/31 05:45:42;;;;;;;5.40;2.95;;;21.20;79.50;;;;;;4994485;28;20035;-69
2022/08/31 05:48:08;;;;;;;4.65;3.00;;;21.30;78.80;;;;;;4994475;28;20380;-70
2022/08/31 05:50:36;;;;;;;4.50;2.63;;;21.30;78.10;;;;;;4994284;28;20113;-70
2022/08/31 05:53:02;;;;;;;4.05;2.78;;;21.30;77.70;;;;;;4994197;28;20033;-69
2022/08/31 05:55:28;;;;;;;3.78;2.60;;;21.40;78.40;;;;;;4994614;28;20076;-69
2022/08/31 05:57:53;;;;;;;6.28;3.03;;;21.40;77.90;;;;;;4993713;28;20143;-70
2022/08/31 06:00:19;;;;;;;6.68;3.05;;;21.50;77.90;;;;;;4994515;28;20030;-69
2022/08/31 06:02:45;;;;;;;6.32;2.67;;;21.60;78.50;;;;;;4993890;28;20022;-70
2022/08/31 06:05:11;;;;;;;5.72;2.80;;;21.80;77.80;;;;;;4994258;28;20108;-70
2022/08/31 06:07:37;;;;;;;4.70;2.80;;;21.90;76.40;;;;;;4994330;28;20034;-69
2022/08/31 06:10:04;;;;;;;3.00;2.47;;;22.10;75.60;;;;;;4993724;28;20033;-69
2022/08/31 06:12:32;;;;;;;3.75;2.78;;;22.20;74.90;;;;;;4994069;28;20088;-69
2022/08/31 06:14:58;;;;;;;7.13;2.78;;;22.30;73.70;;;;;;4993509;28;20038;-68
2022/08/31 06:17:23;;;;;;;5.90;2.67;;;22.30;73.00;;;;;;4994056;28;20030;-69
2022/08/31 06:19:50;;;;;;;5.25;2.53;;;22.30;72.80;;;;;;4976105;28;20105;-69
2022/08/31 06:22:17;;;;;;;6.15;2.92;;;22.40;72.90;;;;;;5006002;28;20097;-69
2022/08/31 06:24:43;;;;;;;3.90;2.67;;;22.60;72.90;;;;;;5013380;28;20442;-69
2022/08/31 06:27:09;;;;;;;4.47;2.80;;;22.60;72.40;;;;;;5013184;28;20061;-69
2022/08/31 06:29:34;;;;;;;4.07;2.70;;;22.60;71.90;;;;;;5013425;28;20030;-73
2022/08/31 06:32:06;;;;;;;5.05;2.75;;;22.60;70.80;;;;;;5012878;28;20095;-73
2022/08/31 06:34:33;;;;;;;3.70;2.53;;;22.70;70.10;;;;;;5013087;28;20057;-73
2022/08/31 06:36:59;;;;;;;3.97;2.40;;;22.70;71.80;;;;;;5012788;28;20340;-72
2022/08/31 06:39:25;;;;;;;4.22;2.75;;;22.80;70.60;;;;;;5013418;28;20030;-72
2022/08/31 06:41:54;;;;;;;2.58;2.38;;;22.90;69.60;;;;;;5012802;28;20135;-73
2022/08/31 06:44:22;;;;;;;4.00;2.85;;;22.90;69.20;;;;;;5012929;28;20123;-74
2022/08/31 06:46:49;;;;;;;4.18;2.88;;;23.00;69.70;;;;;;4992397;28;20034;-74
2022/08/31 06:49:15;;;;;;;2.95;2.60;;;23.10;70.20;;;;;;5013011;28;20056;-74
2022/08/31 06:51:41;;;;;;;3.92;2.20;;;23.20;69.20;;;;;;5012925;28;20475;-73
2022/08/31 06:54:10;;;;;;;3.63;2.63;;;23.30;68.50;;;;;;5012451;28;20247;-73
2022/08/31 06:56:36;;;;;;;3.22;2.58;;;23.40;68.40;;;;;;5013039;28;20562;-73
2022/08/31 06:59:03;;;;;;;5.03;2.60;;;23.50;67.70;;;;;;5012348;28;20104;-73
2022/08/31 07:01:30;;;;;;;3.45;2.50;;;23.70;67.70;;;;;;5012973;28;20030;-72
2022/08/31 07:03:57;;;;;;;3.83;2.58;;;23.90;66.90;;;;;;5012534;28;20053;-73
2022/08/31 07:06:44;;;;;;;4.00;2.63;;;24.00;66.40;;;;;;5012921;28;20038;-73
2022/08/31 07:09:14;;;;;;;3.65;2.70;;;24.20;66.30;;;;;;5012278;28;20087;-73
2022/08/31 07:11:47;;;;;;;8.75;2.83;;;24.30;64.90;;;;;;5012965;28;20034;-73
2022/08/31 07:14:17;;;;;;;2.95;2.40;;;24.60;65.10;;;;;;5012583;28;20038;-73
2022/08/31 07:16:44;;;;;;;3.40;2.38;;;25.30;64.50;;;;;;5009387;28;20092;-73
2022/08/31 07:19:11;;;;;;;3.47;2.58;;;26.00;62.20;;;;;;5012549;28;20462;-74
2022/08/31 07:21:45;;;;;;;4.85;2.45;;;27.00;59.80;;;;;;5012732;28;20104;-73
2022/08/31 07:24:13;;;;;;;2.70;2.30;;;27.80;56.30;;;;;;5011975;28;20107;-74
2022/08/31 07:26:48;;;;;;;3.67;2.30;;;28.40;54.80;;;;;;5012578;28;20121;-73
2022/08/31 07:29:17;;;;;;;3.47;2.22;;;29.20;53.50;;;;;;5012767;28;20033;-72
2022/08/31 07:31:46;;;;;;;2.33;2.13;;;29.80;50.70;;;;;;5012476;28;20029;-72
2022/08/31 07:34:14;;;;;;;5.07;2.40;;;30.60;50.10;;;;;;5011641;28;20387;-73
2022/08/31 07:42:18;;;;;;;4.18;1.75;;;32.40;44.80;;;;;;5012293;28;20056;-73
2022/08/31 07:44:48;;;;;;;2.80;2.55;;;33.20;43.80;;;;;;5012474;28;20034;-73
2022/08/31 07:47:18;;;;;;;6.70;2.75;;;33.60;42.30;;;;;;5012472;28;20038;-72
2022/08/31 07:49:47;;;;;;;4.22;2.35;;;34.00;42.00;;;;;;5012469;28;20030;-72
2022/08/31 07:52:15;;;;;;;2.28;1.95;;;34.30;40.90;;;;;;5011937;28;20033;-72
2022/08/31 07:54:43;;;;;;;2.60;2.08;;;34.50;40.50;;;;;;5012483;28;20459;-73
2022/08/31 07:57:09;;;;;;;1.83;1.52;;;35.10;40.50;;;;;;5012006;28;20018;-73
2022/08/31 07:59:38;;;;;;;6.50;2.00;;;35.50;39.20;;;;;;5012118;28;20098;-73
2022/08/31 08:02:05;;;;;;;2.33;1.77;;;35.20;38.80;;;;;;5011836;28;20036;-73
2022/08/31 08:04:31;;;;;;;2.30;1.83;;;35.10;40.10;;;;;;5012084;28;20394;-73
2022/08/31 08:06:59;;;;;;;4.32;2.85;;;35.30;38.00;;;;;;5011657;28;20034;-73
2022/08/31 08:09:26;;;;;;;2.72;2.20;;;34.90;39.60;;;;;;5011946;28;20451;-73
2022/08/31 08:11:56;;;;;;;2.85;2.20;;;35.50;38.40;;;;;;5011859;28;20029;-73
2022/08/31 08:14:26;;;;;;;;;;;35.70;38.00;;;;;;5012608;28;20444;-72
2022/08/31 08:16:53;;;;;;;3.35;2.10;;;36.40;37.50;;;;;;5011757;28;19905;-72
2022/08/31 08:19:19;;;;;;;2.15;1.83;;;36.60;35.80;;;;;;5011818;28;20026;-72
2022/08/31 08:21:47;;;;;;;3.88;2.00;;;36.30;36.20;;;;;;5014987;28;20045;-72
2022/08/31 08:24:14;;;;;;;4.10;1.60;;;36.20;35.40;;;;;;5015580;28;20511;-72
2022/08/31 08:26:45;;;;;;;2.55;2.00;;;36.30;35.50;;;;;;5015386;28;20441;-71
2022/08/31 08:29:11;;;;;;;2.65;1.85;;;36.10;36.10;;;;;;5015207;28;20030;-74
2022/08/31 08:31:37;;;;;;;2.75;1.90;;;36.20;36.00;;;;;;5015308;28;20026;-73
2022/08/31 08:34:03;;;;;;;2.58;2.00;;;37.00;35.60;;;;;;5015109;28;20363;-72
2022/08/31 08:36:34;;;;;;;4.40;2.45;;;37.40;35.60;;;;;;5015978;28;20034;-73
2022/08/31 08:39:03;;;;;;;2.28;1.85;;;37.50;34.10;;;;;;5015120;28;20478;-71
2022/08/31 08:41:32;;;;;;;2.97;2.03;;;37.30;34.60;;;;;;5015575;28;20075;-73
2022/08/31 08:44:00;;;;;;;7.78;2.08;;;37.50;34.40;;;;;;5014622;28;20030;-73
2022/08/31 08:46:38;;;;;;;4.63;2.10;;;36.80;35.10;;;;;;5015665;28;20034;-73
2022/08/31 08:49:32;;;;;;;2.22;1.90;;;35.70;36.00;;;;;;5015365;28;20484;-73
2022/08/31 08:52:09;;;;;;;4.13;2.30;;;34.80;37.40;;;;;;5013330;28;20042;-73
2022/08/31 08:54:38;;;;;;;4.63;2.10;;;34.00;38.80;;;;;;5014521;28;20026;-73
2022/08/31 08:57:13;;;;;;;2.72;2.17;;;33.60;38.80;;;;;;5014815;28;20022;-73
2022/08/31 08:59:44;;;;;;;3.03;2.45;;;33.20;40.20;;;;;;5015247;28;20021;-73
2022/08/31 09:02:35;;;;;;;4.78;2.40;;;32.70;40.20;;;;;;5014922;28;20515;-73
2022/08/31 09:05:39;;;;;;;4.25;2.10;;;32.30;40.60;;;;;;5014882;28;20034;-73
2022/08/31 09:08:32;;;;;;;4.60;2.85;;;31.80;41.40;;;;;;4912473;29;20032;-73
2022/08/31 09:11:16;;;;;;;3.75;2.45;;;31.60;42.10;;;;;;4915884;29;20112;-73
2022/08/31 09:14:17;;;;;;;2.78;2.13;;;31.50;42.60;;;;;;4992662;28;20046;-73
2022/08/31 09:17:02;;;;;;;4.50;2.30;;;31.20;42.40;;;;;;5014924;28;20022;-72
2022/08/31 09:19:57;;;;;;;3.85;2.40;;;30.80;43.20;;;;;;5014614;28;20384;-73
2022/08/31 09:22:14;;;;;;;4.57;2.70;;;30.30;43.90;;;;;;5014027;28;20050;-72
2022/08/31 09:24:39;;;;;;;3.28;2.15;;;30.30;44.70;;;;;;5014795;28;20356;-73
2022/08/31 09:27:18;;;;;;;5.13;2.22;;;30.20;44.50;;;;;;5014385;28;20037;-73
2022/08/31 09:29:53;;;;;;;4.18;3.15;;;30.20;44.60;;;;;;5014704;28;20422;-72
2022/08/31 09:32:30;;;;;;;4.32;2.38;;;30.10;45.00;;;;;;5013112;28;20083;-72
2022/08/31 09:35:02;;;;;;;4.28;2.67;;;29.90;44.60;;;;;;5014353;28;20030;-72
2022/08/31 09:37:44;;;;;;;4.40;2.45;;;29.60;44.90;;;;;;4996994;28;20075;-72
2022/08/31 09:40:21;;;;;;;2.97;2.33;;;29.50;45.50;;;;;;5014080;28;20366;-72
2022/08/31 09:43:01;;;;;;;2.70;2.25;;;29.40;46.00;;;;;;5014334;28;20113;-73
2022/08/31 09:45:34;;;;;;;4.72;2.72;;;29.10;46.30;;;;;;5014498;28;20026;-71
2022/08/31 09:48:02;;;;;;;3.03;2.42;;;29.00;46.80;;;;;;5013940;28;20038;-72
2022/08/31 09:50:30;;;;;;;7.75;2.50;;;29.00;47.30;;;;;;5014080;28;20117;-73
2022/08/31 09:56:11;;;;;;;3.92;2.30;;;28.90;46.80;;;;;;5013948;28;20080;-73
2022/08/31 09:58:37;;;;;;;7.20;2.42;;;28.90;46.90;;;;;;5014010;28;20034;-73
2022/08/31 10:01:12;;;;;;;2.65;2.22;;;28.70;47.30;;;;;;5013601;28;20026;-73
2022/08/31 10:03:43;;;;;;;3.05;2.40;;;28.70;47.10;;;;;;5013943;28;20041;-73
2022/08/31 10:06:24;;;;;;;7.00;2.50;;;28.60;47.40;;;;;;5013487;28;20463;-73
2022/08/31 10:08:57;;;;;;;3.15;1.90;;;28.60;48.30;;;;;;5013720;28;20033;-73
2022/08/31 10:11:29;;;;;;;3.15;2.00;;;28.70;47.80;;;;;;5013475;28;20075;-73
2022/08/31 10:14:06;;;;;;;5.25;2.35;;;28.80;47.90;;;;;;5013819;28;20034;-72
2022/08/31 10:16:41;;;;;;;2.50;2.30;;;28.80;47.40;;;;;;5013734;28;20033;-72
2022/08/31 10:19:14;;;;;;;7.63;2.08;;;28.80;47.90;;;;;;5013031;28;20463;-73
2022/08/31 10:21:41;;;;;;;5.22;2.33;;;28.90;47.70;;;;;;5013789;28;20053;-72
2022/08/31 10:24:26;;;;;;;7.38;3.00;;;28.90;47.10;;;;;;5012970;28;20360;-73
2022/08/31 10:27:04;;;;;;;4.15;2.47;;;28.90;47.00;;;;;;5013620;28;20041;-72
2022/08/31 10:29:40;;;;;;;4.30;2.38;;;28.80;47.20;;;;;;5013624;28;20057;-73
2022/08/31 10:32:50;;;;;;;4.32;2.22;;;28.80;47.50;;;;;;5012927;28;20026;-72
2022/08/31 10:35:22;;;;;;;2.40;2.00;;;28.80;46.80;;;;;;5012710;28;20041;-73
2022/08/31 10:38:22;;;;;;;2.25;1.98;;;28.70;45.70;;;;;;5013452;28;20103;-72
2022/08/31 10:40:49;;;;;;;3.35;2.40;;;28.60;45.70;;;;;;5013000;28;20426;-72
2022/08/31 10:43:20;;;;;;;7.28;2.30;;;28.40;46.30;;;;;;5012146;28;20033;-72
2022/08/31 10:45:48;;;;;;;2.75;2.45;;;28.40;46.40;;;;;;5012464;28;20041;-72
2022/08/31 10:48:23;;;;;;;3.35;2.15;;;28.40;46.40;;;;;;4994958;28;20436;-73
2022/08/31 10:51:07;;;;;;;3.35;2.40;;;28.40;46.10;;;;;;4993474;28;20104;-72
2022/08/31 10:54:01;;;;;;;3.03;2.00;;;28.40;46.10;;;;;;4993099;28;20045;-73
2022/08/31 10:56:55;;;;;;;7.68;2.15;;;28.30;45.40;;;;;;4985288;28;20038;-73
2022/08/31 10:59:35;;;;;;;3.92;1.92;;;28.30;46.00;;;;;;4993673;28;20038;-73
2022/08/31 11:02:20;;;;;;;2.35;1.90;;;28.30;45.90;;;;;;4993416;28;20094;-73
2022/08/31 11:05:31;;;;;;;2.22;1.73;;;28.30;45.70;;;;;;4993070;28;20412;-73
2022/08/31 11:08:04;;;;;;;4.25;2.20;;;28.20;44.50;;;;;;4973583;28;20133;-73
2022/08/31 11:10:53;;;;;;;2.63;1.92;;;28.10;45.10;;;;;;4993354;28;20029;-73
2022/08/31 11:13:24;;;;;;;6.55;2.22;;;27.90;45.20;;;;;;4992828;28;20105;-72
2022/08/31 11:16:16;;;;;;;1.80;1.52;;;27.90;45.20;;;;;;4993118;28;20034;-73
2022/08/31 11:18:56;;;;;;;3.45;1.70;;;27.90;45.30;;;;;;4993268;28;20038;-73
2022/08/31 11:21:49;;;;;;;2.88;1.55;;;27.90;44.80;;;;;;4992767;28;20060;-73
2022/08/31 11:24:48;;;;;;;2.22;1.52;;;27.90;44.60;;;;;;4956650;28;20034;-73
2022/08/31 11:27:32;;;;;;;1.83;1.50;;;27.90;45.00;;;;;;4992389;28;20034;-72
2022/08/31 11:30:23;;;;;;;2.65;1.85;;;27.90;44.70;;;;;;4993184;28;20479;-72
2022/08/31 11:32:54;;;;;;;;;;;27.80;44.50;;;;;;4993883;28;20031;-72
2022/08/31 11:36:04;;;;;;;3.50;1.60;;;27.80;44.70;;;;;;4992626;28;19933;-73
2022/08/31 11:39:00;;;;;;;2.67;1.80;;;27.80;45.20;;;;;;4992181;28;20034;-72
2022/08/31 11:41:47;;;;;;;1.63;1.52;;;27.90;44.70;;;;;;4992559;28;20399;-73
2022/08/31 11:44:32;;;;;;;2.72;1.73;;;27.90;44.30;;;;;;4992595;28;20114;-73
2022/08/31 11:47:11;;;;;;;1.70;1.58;;;27.90;44.80;;;;;;4993080;28;20027;-72
2022/08/31 11:49:42;;;;;;;2.55;1.80;;;27.90;44.50;;;;;;4993071;28;20038;-72
2022/08/31 11:52:33;;;;;;;;;;;28.00;44.20;;;;;;4992676;28;20030;-72
2022/08/31 11:55:06;;;;;;;2.05;1.63;;;28.00;43.80;;;;;;4980979;28;19913;-72
2022/08/31 11:58:08;;;;;;;2.47;1.55;;;28.00;43.60;;;;;;4996668;28;20030;-72
2022/08/31 12:00:49;;;;;;;1.83;1.30;;;28.00;43.10;;;;;;4996493;28;20460;-72
2022/08/31 12:03:33;;;;;;;4.28;1.73;;;28.00;42.60;;;;;;4996176;28;20543;-72
2022/08/31 12:05:58;;;;;;;1.45;1.35;;;28.00;42.60;;;;;;4996016;28;20097;-73
2022/08/31 12:08:28;;;;;;;4.45;1.83;;;28.00;42.60;;;;;;4995792;28;20054;-72
2022/08/31 12:11:14;;;;;;;2.57;1.83;;;27.90;42.30;;;;;;4996234;28;20033;-72
2022/08/31 12:14:05;;;;;;;4.70;1.80;;;27.90;43.70;;;;;;4996004;28;20050;-72
2022/08/31 12:16:35;;;;;;;3.30;1.95;;;27.80;45.80;;;;;;4995851;28;20030;-73
2022/08/31 12:26:05;;;;;;;2.92;1.85;;;27.50;46.20;;;;;;4995495;28;20455;-72
2022/08/31 12:29:01;;;;;;;2.03;1.50;;;27.40;45.20;;;;;;4958826;28;20052;-72
2022/08/31 12:31:27;;;;;;;4.40;1.80;;;27.30;45.60;;;;;;4995781;28;20022;-72
2022/08/31 12:34:04;;;;;;;3.13;1.83;;;27.20;45.40;;;;;;4995956;28;20041;-72
2022/08/31 12:36:33;;;;;;;2.50;1.73;;;27.20;45.10;;;;;;4995239;28;20438;-72
2022/08/31 12:39:21;;;;;;;2.30;1.63;;;27.10;45.40;;;;;;4996119;28;20022;-73
2022/08/31 12:42:01;;;;;;;3.28;1.50;;;27.10;45.90;;;;;;4996084;28;20101;-73
2022/08/31 12:44:35;;;;;;;2.55;1.70;;;27.10;46.40;;;;;;5014289;28;20041;-73
2022/08/31 12:47:22;;;;;;;2.40;1.63;;;27.10;46.80;;;;;;4997839;28;20049;-73
2022/08/31 12:50:26;;;;;;;2.85;1.92;;;27.00;46.20;;;;;;5015227;28;20163;-73
2022/08/31 12:53:23;;;;;;;1.90;1.70;;;27.00;45.90;;;;;;5009573;28;20116;-73
2022/08/31 12:56:20;;;;;;;1.52;1.38;;;26.90;46.20;;;;;;4995794;28;20038;-72
2022/08/31 12:59:01;;;;;;;3.17;1.95;;;26.80;47.10;;;;;;4995856;28;20064;-74
2022/08/31 13:01:27;;;;;;;;;;;26.70;47.50;;;;;;4995564;28;20038;-72
2022/08/31 13:03:57;;;;;;;3.72;1.52;;;26.60;47.30;;;;;;4995218;28;19910;-72
2022/08/31 13:06:28;;;;;;;2.10;1.47;;;26.60;47.20;;;;;;4994606;28;20030;-72
2022/08/31 13:08:54;;;;;;;3.17;1.80;;;26.50;46.40;;;;;;4995923;28;20705;-72
2022/08/31 13:11:23;;;;;;;2.10;1.70;;;26.40;45.30;;;;;;4994751;28;20033;-72
2022/08/31 13:13:50;;;;;;;2.92;1.67;;;26.20;45.40;;;;;;4995284;28;20137;-73
2022/08/31 13:16:17;;;;;;;6.35;1.73;;;26.10;45.90;;;;;;4995211;28;20088;-74
2022/08/31 13:18:45;;;;;;;2.80;1.75;;;26.00;46.30;;;;;;4995401;28;20117;-72
2022/08/31 13:21:11;;;;;;;3.60;2.10;;;25.90;47.10;;;;;;4995311;28;20051;-72
2022/08/31 13:23:39;;;;;;;7.97;2.00;;;25.90;48.10;;;;;;4994403;28;20117;-72
2022/08/31 13:26:19;;;;;;;2.78;1.95;;;25.80;49.40;;;;;;4995245;28;20053;-72
2022/08/31 13:28:54;;;;;;;4.50;1.90;;;25.80;49.90;;;;;;4994954;28;20026;-72